createdAt,value
2023-04-23T00:00:57.558Z,5.39
2023-04-23T00:01:57.586Z,5.67
2023-04-23T00:03:57.698Z,5.78
2023-04-23T00:04:57.651Z,5.56
2023-04-23T00:05:57.560Z,5.67
2023-04-23T00:06:57.554Z,5.22
2023-04-23T00:07:57.548Z,5.39
2023-04-23T00:08:57.555Z,5.22
2023-04-23T00:09:57.582Z,5.39
2023-04-23T00:10:57.561Z,5.39
2023-04-23T00:11:57.579Z,5.39
2023-04-23T00:13:57.565Z,5.22
2023-04-23T00:14:57.576Z,4.94
2023-04-23T00:15:57.609Z,4.5
2023-04-23T00:17:57.579Z,4.83
2023-04-23T00:18:57.585Z,4.83
2023-04-23T00:19:57.575Z,5.11
2023-04-23T00:20:57.636Z,5.39
2023-04-23T00:21:57.565Z,5.11
2023-04-23T00:22:57.593Z,5.11
2023-04-23T00:23:57.592Z,4.94
2023-04-23T00:24:57.575Z,5.11
2023-04-23T00:25:57.578Z,5.22
2023-04-23T00:26:57.599Z,5.11
2023-04-23T00:27:57.595Z,5.11
2023-04-23T00:29:57.583Z,4.94
2023-04-23T00:30:57.582Z,5.11
2023-04-23T00:31:57.623Z,5.39
2023-04-23T00:33:57.584Z,4.94
2023-04-23T00:35:57.583Z,4.83
2023-04-23T00:36:57.616Z,5.22
2023-04-23T00:38:57.617Z,4.83
2023-04-23T00:40:57.583Z,4.5
2023-04-23T00:41:57.604Z,4.5
2023-04-23T00:43:57.589Z,4.94
2023-04-23T00:44:57.597Z,4.67
2023-04-23T00:45:57.658Z,4.94
2023-04-23T00:46:57.611Z,5.39
2023-04-23T00:47:57.631Z,4.94
2023-04-23T00:48:57.600Z,4.39
2023-04-23T00:50:57.609Z,4.11
2023-04-23T00:51:57.616Z,4.11
2023-04-23T00:52:57.620Z,4.22
2023-04-23T00:54:57.605Z,4.22
2023-04-23T00:55:57.608Z,4.22
2023-04-23T00:56:57.606Z,4.11
2023-04-23T00:57:57.618Z,4.39
2023-04-23T00:58:57.611Z,4.11
2023-04-23T00:59:57.613Z,3.94
2023-04-23T01:00:57.650Z,4.5
2023-04-23T01:01:57.616Z,4.11
2023-04-23T01:02:57.659Z,4.11
2023-04-23T01:03:57.730Z,4.11
2023-04-23T01:04:57.618Z,4.11
2023-04-23T01:05:57.626Z,3.94
2023-04-23T01:07:57.620Z,3.78
2023-04-23T01:08:57.647Z,3.94
2023-04-23T01:10:57.627Z,3.94
2023-04-23T01:11:57.632Z,4.11
2023-04-23T01:12:57.641Z,3.78
2023-04-23T01:14:57.635Z,4.39
2023-04-23T01:15:57.643Z,4.5
2023-04-23T01:16:57.683Z,4.5
2023-04-23T01:17:57.670Z,4.22
2023-04-23T01:18:57.639Z,4.5
2023-04-23T01:19:57.635Z,4.22
2023-04-23T01:21:57.634Z,4.67
2023-04-23T01:23:57.649Z,4.67
2023-04-23T01:24:57.762Z,4.67
2023-04-23T01:26:57.641Z,4.94
2023-04-23T01:27:57.637Z,4.83
2023-04-23T01:28:57.638Z,4.83
2023-04-23T01:29:57.638Z,4.22
2023-04-23T01:30:57.677Z,4.11
2023-04-23T01:32:57.713Z,3.94
2023-04-23T01:33:57.647Z,4.11
2023-04-23T01:35:57.668Z,3.67
2023-04-23T01:37:57.672Z,3.94
2023-04-23T01:38:57.653Z,4.11
2023-04-23T01:39:57.664Z,4.11
2023-04-23T01:40:57.689Z,4.11
2023-04-23T01:42:57.649Z,3.78
2023-04-23T01:43:57.665Z,4.22
2023-04-23T01:44:57.652Z,4.11
2023-04-23T01:46:57.649Z,4.83
2023-04-23T01:47:57.683Z,4.94
2023-04-23T01:48:57.650Z,4.94
2023-04-23T01:49:57.657Z,4.67
2023-04-23T01:50:57.654Z,4.83
2023-04-23T01:51:57.660Z,4.39
2023-04-23T01:52:57.684Z,4.11
2023-04-23T01:54:57.668Z,4.5
2023-04-23T01:55:57.666Z,4.5
2023-04-23T01:56:57.681Z,4.5
2023-04-23T01:58:57.667Z,4.83
2023-04-23T01:59:57.667Z,4.5
2023-04-23T02:00:57.659Z,4.94
2023-04-23T02:01:57.729Z,4.5
2023-04-23T02:02:57.765Z,4.5
2023-04-23T02:03:57.690Z,4.39
2023-04-23T02:04:57.659Z,4.39
2023-04-23T02:05:57.670Z,4.5
2023-04-23T02:06:57.666Z,4.83
2023-04-23T02:08:57.663Z,4.5
2023-04-23T02:09:57.679Z,4.39
2023-04-23T02:10:57.666Z,4.22
2023-04-23T02:11:57.665Z,3.94
2023-04-23T02:12:57.692Z,3.78
2023-04-23T02:14:57.658Z,3.56
2023-04-23T02:15:57.674Z,3.39
2023-04-23T02:16:57.695Z,3.11
2023-04-23T02:17:57.698Z,3.39
2023-04-23T02:18:57.664Z,3.39
2023-04-23T02:19:57.688Z,3.67
2023-04-23T02:20:57.675Z,3.67
2023-04-23T02:21:57.674Z,3.78
2023-04-23T02:22:57.688Z,3.78
2023-04-23T02:23:57.668Z,3.78
2023-04-23T02:24:57.681Z,4.11
2023-04-23T02:25:57.702Z,3.94
2023-04-23T02:27:57.702Z,4.11
2023-04-23T02:28:57.696Z,4.11
2023-04-23T02:30:57.696Z,3.78
2023-04-23T02:31:57.883Z,3.56
2023-04-23T02:32:57.707Z,3.94
2023-04-23T02:33:57.677Z,3.67
2023-04-23T02:34:57.689Z,3.94
2023-04-23T02:35:57.679Z,3.78
2023-04-23T02:36:57.696Z,4.11
2023-04-23T02:37:57.704Z,4.11
2023-04-23T02:38:57.688Z,4.11
2023-04-23T02:40:57.687Z,4.11
2023-04-23T02:41:57.692Z,3.56
2023-04-23T02:42:57.688Z,4.11
2023-04-23T02:44:57.715Z,3.78
2023-04-23T02:46:57.777Z,4.11
2023-04-23T02:48:57.694Z,4.61
2023-04-23T02:50:57.689Z,4.22
2023-04-23T02:51:57.700Z,4.17
2023-04-23T02:52:57.708Z,4.22
2023-04-23T02:54:57.703Z,4.11
2023-04-23T02:55:57.709Z,3.78
2023-04-23T02:56:57.700Z,4
2023-04-23T02:57:57.706Z,3.94
2023-04-23T02:58:57.710Z,3.67
2023-04-23T02:59:57.723Z,3.67
2023-04-23T03:00:57.904Z,3.67
2023-04-23T03:02:57.902Z,3.56
2023-04-23T03:03:57.822Z,3.94
2023-04-23T03:05:57.719Z,3.78
2023-04-23T03:06:57.723Z,4
2023-04-23T03:07:57.733Z,3.44
2023-04-23T03:08:57.734Z,3.67
2023-04-23T03:09:57.747Z,3.39
2023-04-23T03:10:57.724Z,3.28
2023-04-23T03:12:57.745Z,3
2023-04-23T03:14:57.741Z,3
2023-04-23T03:16:57.824Z,3
2023-04-23T03:17:57.793Z,2.83
2023-04-23T03:18:57.753Z,2.83
2023-04-23T03:19:57.763Z,2.72
2023-04-23T03:20:57.752Z,2.83
2023-04-23T03:22:57.770Z,3.11
2023-04-23T03:24:57.773Z,3.28
2023-04-23T03:26:57.764Z,3.44
2023-04-23T03:28:57.755Z,3
2023-04-23T03:29:57.750Z,3.39
2023-04-23T03:30:57.765Z,3.5
2023-04-23T03:31:57.758Z,3.61
2023-04-23T03:32:57.886Z,3.33
2023-04-23T03:33:57.824Z,3.33
2023-04-23T03:34:57.762Z,3.44
2023-04-23T03:35:57.785Z,3.44
2023-04-23T03:36:57.772Z,3.33
2023-04-23T03:37:57.775Z,3.56
2023-04-23T03:38:57.763Z,3.56
2023-04-23T03:39:57.783Z,3.56
2023-04-23T03:40:57.771Z,3.72
2023-04-23T03:41:57.782Z,3.44
2023-04-23T03:42:57.791Z,3.33
2023-04-23T03:44:57.794Z,3
2023-04-23T03:45:57.808Z,3
2023-04-23T03:47:57.815Z,2.67
2023-04-23T03:48:57.827Z,2.94
2023-04-23T03:49:57.784Z,2.72
2023-04-23T03:50:57.790Z,2.72
2023-04-23T03:51:57.801Z,2.67
2023-04-23T03:53:57.793Z,2.61
2023-04-23T03:54:57.811Z,2.72
2023-04-23T03:55:57.808Z,2.67
2023-04-23T03:56:57.801Z,2.83
2023-04-23T03:57:57.806Z,2.61
2023-04-23T03:58:57.810Z,2.61
2023-04-23T04:00:57.825Z,2.72
2023-04-23T04:02:57.852Z,2.89
2023-04-23T04:03:58.017Z,3.39
2023-04-23T04:04:58.143Z,3.44
2023-04-23T04:05:57.813Z,3.5
2023-04-23T04:06:57.847Z,3.44
2023-04-23T04:07:57.835Z,3.56
2023-04-23T04:08:57.823Z,3.56
2023-04-23T04:10:57.837Z,3.44
2023-04-23T04:11:57.818Z,3.33
2023-04-23T04:12:57.834Z,3.33
2023-04-23T04:14:57.820Z,3
2023-04-23T04:15:57.848Z,3.33
2023-04-23T04:16:57.825Z,3
2023-04-23T04:17:57.856Z,3
2023-04-23T04:19:57.830Z,3.11
2023-04-23T04:20:57.856Z,3
2023-04-23T04:22:57.819Z,3.17
2023-04-23T04:23:57.868Z,2.89
2023-04-23T04:24:57.839Z,3.17
2023-04-23T04:25:57.854Z,3.44
2023-04-23T04:26:57.850Z,3.72
2023-04-23T04:28:57.842Z,3.72
2023-04-23T04:29:57.837Z,3.83
2023-04-23T04:30:57.840Z,3.56
2023-04-23T04:32:57.867Z,4
2023-04-23T04:34:57.849Z,3.44
2023-04-23T04:35:57.832Z,3.44
2023-04-23T04:36:57.870Z,3.44
2023-04-23T04:37:57.840Z,3.33
2023-04-23T04:38:57.854Z,2.44
2023-04-23T04:40:57.853Z,3
2023-04-23T04:41:57.856Z,2.72
2023-04-23T04:42:57.834Z,3
2023-04-23T04:43:57.855Z,3
2023-04-23T04:44:57.848Z,3.33
2023-04-23T04:45:57.861Z,3.33
2023-04-23T04:46:57.891Z,3.17
2023-04-23T04:47:57.871Z,3.44
2023-04-23T04:49:57.907Z,3.83
2023-04-23T04:50:57.851Z,3.83
2023-04-23T04:51:57.858Z,4.17
2023-04-23T04:52:57.884Z,3.83
2023-04-23T04:53:57.853Z,3.72
2023-04-23T04:54:57.862Z,3.83
2023-04-23T04:56:57.867Z,4
2023-04-23T04:57:57.872Z,3.83
2023-04-23T04:59:57.875Z,4.28
2023-04-23T05:00:57.865Z,4.28
2023-04-23T05:01:57.901Z,4.28
2023-04-23T05:02:58.031Z,4.44
2023-04-23T05:03:58.116Z,4.28
2023-04-23T05:04:57.864Z,4.28
2023-04-23T05:05:57.873Z,4.44
2023-04-23T05:06:57.864Z,4.56
2023-04-23T05:07:57.877Z,4.44
2023-04-23T05:08:57.897Z,4.56
2023-04-23T05:10:57.887Z,4.44
2023-04-23T05:11:57.898Z,4.72
2023-04-23T05:12:57.886Z,4.72
2023-04-23T05:13:57.898Z,4.56
2023-04-23T05:14:57.902Z,4.72
2023-04-23T05:15:57.892Z,4.56
2023-04-23T05:17:57.931Z,4.56
2023-04-23T05:18:57.894Z,4.44
2023-04-23T05:19:57.909Z,4.44
2023-04-23T05:20:57.914Z,4.28
2023-04-23T05:21:57.885Z,4.72
2023-04-23T05:22:57.904Z,4.72
2023-04-23T05:23:57.897Z,4.89
2023-04-23T05:24:57.928Z,5.17
2023-04-23T05:25:57.890Z,5.17
2023-04-23T05:26:57.903Z,4.89
2023-04-23T05:27:57.904Z,5
2023-04-23T05:28:57.887Z,5.61
2023-04-23T05:29:57.911Z,5.72
2023-04-23T05:30:57.911Z,6
2023-04-23T05:31:57.916Z,6
2023-04-23T05:32:57.948Z,5.83
2023-04-23T05:33:57.908Z,5.83
2023-04-23T05:35:57.898Z,6
2023-04-23T05:36:57.909Z,6
2023-04-23T05:37:57.924Z,6.28
2023-04-23T05:39:57.918Z,6.39
2023-04-23T05:40:57.922Z,6.11
2023-04-23T05:41:57.905Z,6.11
2023-04-23T05:42:57.902Z,6.11
2023-04-23T05:43:57.909Z,6
2023-04-23T05:45:57.906Z,5.83
2023-04-23T05:47:57.961Z,5.61
2023-04-23T05:49:57.921Z,6.11
2023-04-23T05:50:57.920Z,6.56
2023-04-23T05:51:57.921Z,7
2023-04-23T05:52:57.908Z,7.17
2023-04-23T05:53:57.912Z,6.72
2023-04-23T05:54:57.923Z,6.39
2023-04-23T05:55:57.933Z,6.39
2023-04-23T05:56:57.943Z,6.28
2023-04-23T05:57:57.911Z,6.28
2023-04-23T05:58:57.926Z,6
2023-04-23T05:59:57.929Z,6
2023-04-23T06:00:57.931Z,6.39
2023-04-23T06:01:57.911Z,6
2023-04-23T06:02:58.038Z,6.11
2023-04-23T06:03:58.044Z,5.72
2023-04-23T06:04:58.035Z,6.11
2023-04-23T06:05:57.942Z,6
2023-04-23T06:06:57.933Z,6
2023-04-23T06:07:57.917Z,6.39
2023-04-23T06:08:57.924Z,6.39
2023-04-23T06:09:57.916Z,7.28
2023-04-23T06:10:57.931Z,7.61
2023-04-23T06:11:57.924Z,7.89
2023-04-23T06:12:57.943Z,8
2023-04-23T06:13:57.930Z,8.44
2023-04-23T06:14:57.932Z,9.17
2023-04-23T06:15:57.959Z,9
2023-04-23T06:16:57.928Z,9.44
2023-04-23T06:17:57.965Z,9.28
2023-04-23T06:18:57.930Z,8.83
2023-04-23T06:19:57.925Z,8.44
2023-04-23T06:20:57.936Z,8.44
2023-04-23T06:21:57.937Z,8.44
2023-04-23T06:23:57.926Z,8.61
2023-04-23T06:24:57.940Z,8.67
2023-04-23T06:26:57.935Z,9.72
2023-04-23T06:27:57.949Z,9
2023-04-23T06:28:57.982Z,9
2023-04-23T06:29:57.931Z,9.28
2023-04-23T06:30:57.947Z,9.72
2023-04-23T06:31:57.941Z,9.61
2023-04-23T06:33:57.948Z,10
2023-04-23T06:35:01.809Z,9.61
2023-04-23T06:35:57.946Z,9.17
2023-04-23T06:36:57.961Z,8.61
2023-04-23T06:38:57.963Z,8.33
2023-04-23T06:39:57.931Z,8.44
2023-04-23T06:40:57.949Z,8.44
2023-04-23T06:41:57.943Z,8.61
2023-04-23T06:43:57.939Z,9
2023-04-23T06:44:57.974Z,8.67
2023-04-23T06:46:58.010Z,9
2023-04-23T06:47:57.948Z,8.83
2023-04-23T06:48:57.950Z,9.17
2023-04-23T06:50:57.942Z,9.17
2023-04-23T06:51:58.072Z,9.61
2023-04-23T06:52:57.945Z,9.61
2023-04-23T06:53:57.963Z,9.28
2023-04-23T06:55:57.961Z,9.44
2023-04-23T06:56:57.948Z,9.5
2023-04-23T06:57:57.936Z,8.83
2023-04-23T06:58:57.949Z,8.78
2023-04-23T06:59:57.939Z,9.06
2023-04-23T07:00:58.291Z,9.06
2023-04-23T07:02:58.012Z,9.22
2023-04-23T07:03:58.010Z,9.22
2023-04-23T07:05:57.949Z,9.06
2023-04-23T07:06:57.961Z,8.94
2023-04-23T07:07:57.956Z,8.78
2023-04-23T07:08:57.951Z,8.61
2023-04-23T07:09:57.967Z,9.67
2023-04-23T07:10:57.968Z,9.67
2023-04-23T07:12:57.973Z,9.5
2023-04-23T07:13:57.990Z,9.39
2023-04-23T07:14:58.000Z,9.39
2023-04-23T07:16:58.034Z,9.06
2023-04-23T07:18:57.974Z,9.78
2023-04-23T07:19:58.114Z,9.78
2023-04-23T07:20:57.971Z,9.67
2023-04-23T07:21:57.978Z,9.06
2023-04-23T07:23:58.006Z,8.78
2023-04-23T07:24:57.995Z,8.78
2023-04-23T07:26:57.991Z,9.22
2023-04-23T07:27:57.987Z,9.06
2023-04-23T07:28:57.995Z,9.67
2023-04-23T07:29:57.991Z,9.22
2023-04-23T07:30:57.993Z,9.67
2023-04-23T07:31:57.993Z,10.11
2023-04-23T07:32:58.076Z,10.11
2023-04-23T07:33:57.989Z,9.78
2023-04-23T07:34:57.997Z,10.11
2023-04-23T07:35:57.987Z,10.83
2023-04-23T07:36:58.023Z,11.44
2023-04-23T07:38:58.020Z,12.11
2023-04-23T07:39:58.005Z,12.11
2023-04-23T07:40:58.051Z,12.11
2023-04-23T07:41:58.026Z,12.28
2023-04-23T07:43:58.011Z,12.28
2023-04-23T07:44:57.990Z,11.83
2023-04-23T07:45:58.079Z,11.61
2023-04-23T07:46:57.989Z,11.11
2023-04-23T07:47:58.028Z,11
2023-04-23T07:48:58.018Z,10.56
2023-04-23T07:50:58.007Z,11.72
2023-04-23T07:51:58.005Z,12.11
2023-04-23T07:52:57.999Z,11.83
2023-04-23T07:53:57.998Z,11.94
2023-04-23T07:54:58.004Z,11.72
2023-04-23T07:55:58.009Z,11.72
2023-04-23T07:56:57.999Z,11.72
2023-04-23T07:57:58.007Z,11.83
2023-04-23T07:58:57.998Z,12.11
2023-04-23T07:59:58.030Z,11.44
2023-04-23T08:00:57.993Z,11.28
2023-04-23T08:01:58.007Z,10.83
2023-04-23T08:02:58.126Z,10.83
2023-04-23T08:03:59.464Z,11.72
2023-04-23T08:04:58.166Z,11.72
2023-04-23T08:05:58.011Z,11.83
2023-04-23T08:06:58.011Z,11.61
2023-04-23T08:07:58.039Z,12.56
2023-04-23T08:09:58.008Z,13.17
2023-04-23T08:10:58.031Z,12.56
2023-04-23T08:12:58.031Z,12.28
2023-04-23T08:13:58.040Z,12.28
2023-04-23T08:14:58.043Z,12.44
2023-04-23T08:15:58.049Z,12.89
2023-04-23T08:16:58.059Z,12.56
2023-04-23T08:17:58.042Z,12.56
2023-04-23T08:19:05.161Z,12.11
2023-04-23T08:19:58.011Z,11.61
2023-04-23T08:20:58.041Z,11.28
2023-04-23T08:21:58.017Z,12.44
2023-04-23T08:22:58.027Z,13.06
2023-04-23T08:23:58.020Z,13.17
2023-04-23T08:25:58.024Z,13.33
2023-04-23T08:26:58.018Z,13.06
2023-04-23T08:27:58.024Z,12.28
2023-04-23T08:29:58.028Z,12.28
2023-04-23T08:30:58.045Z,12.11
2023-04-23T08:31:58.038Z,12.72
2023-04-23T08:32:58.065Z,12.56
2023-04-23T08:33:58.013Z,12.28
2023-04-23T08:34:58.035Z,12.28
2023-04-23T08:36:58.056Z,13.06
2023-04-23T08:38:58.032Z,13.17
2023-04-23T08:40:58.020Z,13.33
2023-04-23T08:41:58.023Z,13.06
2023-04-23T08:42:58.045Z,12.89
2023-04-23T08:44:58.030Z,13.67
2023-04-23T08:45:58.045Z,13.67
2023-04-23T08:46:58.044Z,13.33
2023-04-23T08:47:59.600Z,13.94
2023-04-23T08:48:58.049Z,13.67
2023-04-23T08:49:58.030Z,13.5
2023-04-23T08:50:58.040Z,13.33
2023-04-23T08:51:58.029Z,13.17
2023-04-23T08:52:58.089Z,13.67
2023-04-23T08:53:58.034Z,14.06
2023-04-23T08:54:58.056Z,14.06
2023-04-23T08:56:58.038Z,15.17
2023-04-23T08:58:58.031Z,15
2023-04-23T08:59:58.033Z,14.06
2023-04-23T09:01:58.060Z,13.78
2023-04-23T09:02:58.187Z,13.33
2023-04-23T09:03:58.092Z,13.67
2023-04-23T09:04:58.044Z,14.28
2023-04-23T09:06:58.051Z,14.56
2023-04-23T09:07:58.095Z,14.89
2023-04-23T09:08:58.065Z,14.56
2023-04-23T09:09:58.037Z,14.89
2023-04-23T09:10:58.046Z,14.56
2023-04-23T09:12:58.031Z,14.56
2023-04-23T09:13:58.033Z,16.22
2023-04-23T09:14:58.054Z,15.89
2023-04-23T09:16:58.052Z,15.89
2023-04-23T09:18:58.032Z,16.67
2023-04-23T09:19:58.063Z,16.83
2023-04-23T09:20:58.051Z,16.67
2023-04-23T09:22:58.053Z,15.89
2023-04-23T09:23:58.059Z,15.39
2023-04-23T09:24:58.065Z,14.89
2023-04-23T09:25:58.039Z,14.78
2023-04-23T09:26:58.043Z,14.89
2023-04-23T09:28:58.048Z,15.17
2023-04-23T09:29:58.033Z,14.89
2023-04-23T09:30:58.045Z,15.28
2023-04-23T09:31:58.103Z,15.17
2023-04-23T09:33:58.057Z,16.22
2023-04-23T09:34:58.042Z,15.44
2023-04-23T09:35:58.050Z,15.61
2023-04-23T09:36:58.046Z,15.89
2023-04-23T09:38:58.054Z,16.56
2023-04-23T09:39:58.069Z,15.89
2023-04-23T09:40:58.086Z,15.61
2023-04-23T09:41:58.039Z,15.61
2023-04-23T09:42:58.059Z,15.89
2023-04-23T09:43:58.057Z,16.06
2023-04-23T09:45:58.066Z,16.72
2023-04-23T09:47:58.158Z,16.56
2023-04-23T09:48:58.056Z,16.39
2023-04-23T09:50:58.067Z,17.5
2023-04-23T09:52:58.071Z,17.33
2023-04-23T09:53:58.065Z,17.17
2023-04-23T09:54:58.059Z,17
2023-04-23T09:55:58.059Z,17
2023-04-23T09:56:58.088Z,17.5
2023-04-23T09:58:58.073Z,17.5
2023-04-23T10:00:58.080Z,16.89
2023-04-23T10:01:58.073Z,17
2023-04-23T10:02:58.143Z,17.94
2023-04-23T10:05:06.892Z,17.33
2023-04-23T10:06:01.524Z,17.5
2023-04-23T10:07:13.605Z,17.83
2023-04-23T10:07:58.072Z,17.5
2023-04-23T10:09:58.086Z,17.67
2023-04-23T10:11:06.453Z,17.17
2023-04-23T10:12:58.102Z,17
2023-04-23T10:14:58.084Z,17.33
2023-04-23T10:16:04.654Z,17.5
2023-04-23T10:17:58.094Z,16.89
2023-04-23T10:18:58.088Z,17
2023-04-23T10:19:58.082Z,17.94
2023-04-23T10:20:58.093Z,17.67
2023-04-23T10:22:05.352Z,17.5
2023-04-23T10:22:58.096Z,17.5
2023-04-23T10:23:58.082Z,17
2023-04-23T10:24:58.087Z,17.5
2023-04-23T10:25:58.100Z,17.5
2023-04-23T10:26:58.395Z,18.28
2023-04-23T10:27:58.096Z,17.5
2023-04-23T10:28:58.106Z,17.83
2023-04-23T10:30:58.124Z,18.94
2023-04-23T10:31:58.105Z,18.17
2023-04-23T10:34:58.092Z,17.83
2023-04-23T10:35:58.103Z,17.94
2023-04-23T10:37:58.087Z,19.44
2023-04-23T10:38:59.527Z,19.94
2023-04-23T10:39:58.098Z,19.94
2023-04-23T10:40:58.105Z,18.94
2023-04-23T10:42:58.119Z,17.83
2023-04-23T10:45:02.895Z,17.94
2023-04-23T10:46:58.181Z,18.61
2023-04-23T10:48:58.103Z,19.06
2023-04-23T10:49:58.116Z,19.44
2023-04-23T10:52:14.338Z,20.56
2023-04-23T10:52:58.779Z,20.22
2023-04-23T10:53:58.113Z,19.33
2023-04-23T10:54:58.114Z,18.5
2023-04-23T10:55:58.105Z,18
2023-04-23T10:56:58.111Z,18.5
2023-04-23T10:58:00.097Z,19.11
2023-04-23T10:58:58.175Z,19.11
2023-04-23T11:00:58.138Z,18.17
2023-04-23T11:02:58.209Z,18.17
2023-04-23T11:03:58.294Z,18.67
2023-04-23T11:04:58.226Z,18.83
2023-04-23T11:05:58.112Z,19.33
2023-04-23T11:06:58.125Z,19.44
2023-04-23T11:08:00.328Z,19.11
2023-04-23T11:09:58.114Z,19.83
2023-04-23T11:10:58.134Z,19.83
2023-04-23T11:11:58.124Z,20.11
2023-04-23T11:12:58.141Z,19.61
2023-04-23T11:13:59.647Z,19.94
2023-04-23T11:15:58.157Z,19.44
2023-04-23T11:16:58.254Z,18.67
2023-04-23T11:18:58.127Z,18.94
2023-04-23T11:20:58.131Z,18.17
2023-04-23T11:21:58.160Z,18.67
2023-04-23T11:23:58.112Z,18.67
2023-04-23T11:24:58.131Z,18.67
2023-04-23T11:25:58.141Z,18.94
2023-04-23T11:27:58.136Z,19.61
2023-04-23T11:28:58.137Z,19.44
2023-04-23T11:30:58.131Z,19.11
2023-04-23T11:32:02.839Z,19.11
2023-04-23T11:32:58.288Z,19.83
2023-04-23T11:33:58.125Z,19.61
2023-04-23T11:34:58.153Z,19.44
2023-04-23T11:36:58.143Z,19.61
2023-04-23T11:37:58.133Z,19.33
2023-04-23T11:38:58.138Z,18.83
2023-04-23T11:40:58.136Z,18.94
2023-04-23T11:41:58.136Z,19.11
2023-04-23T11:43:58.133Z,19.44
2023-04-23T11:44:58.138Z,19.11
2023-04-23T11:45:58.165Z,18.94
2023-04-23T11:46:58.516Z,19.11
2023-04-23T11:47:58.206Z,19.11
2023-04-23T11:48:58.156Z,19.61
2023-04-23T11:49:58.130Z,20.56
2023-04-23T11:50:58.149Z,20.11
2023-04-23T11:51:58.137Z,19.94
2023-04-23T11:52:58.144Z,19.61
2023-04-23T11:53:58.142Z,19.33
2023-04-23T11:55:58.138Z,19.11
2023-04-23T11:56:58.131Z,19.11
2023-04-23T11:57:58.133Z,19.61
2023-04-23T11:59:58.149Z,19.61
2023-04-23T12:00:58.126Z,19.11
2023-04-23T12:01:58.193Z,19.33
2023-04-23T12:02:58.261Z,19.11
2023-04-23T12:04:58.219Z,19.83
2023-04-23T12:06:58.169Z,20.56
2023-04-23T12:07:58.134Z,20.56
2023-04-23T12:08:58.147Z,19.94
2023-04-23T12:09:58.155Z,20.11
2023-04-23T12:10:58.162Z,20.11
2023-04-23T12:11:58.181Z,19.94
2023-04-23T12:13:58.141Z,21.89
2023-04-23T12:14:58.145Z,21.72
2023-04-23T12:15:58.172Z,20.72
2023-04-23T12:16:58.175Z,21.39
2023-04-23T12:17:58.182Z,22.39
2023-04-23T12:19:58.171Z,21.89
2023-04-23T12:20:58.176Z,21.56
2023-04-23T12:22:58.156Z,20.22
2023-04-23T12:23:58.171Z,19.83
2023-04-23T12:25:58.186Z,20.56
2023-04-23T12:27:58.179Z,20.39
2023-04-23T12:28:58.169Z,20.56
2023-04-23T12:29:58.163Z,20.11
2023-04-23T12:31:58.171Z,20.11
2023-04-23T12:33:58.169Z,20.39
2023-04-23T12:35:58.159Z,20.39
2023-04-23T12:36:58.208Z,20.11
2023-04-23T12:38:58.167Z,20
2023-04-23T12:39:58.165Z,20.11
2023-04-23T12:41:58.170Z,20.78
2023-04-23T12:43:58.177Z,19.83
2023-04-23T12:44:58.191Z,20.56
2023-04-23T12:45:58.178Z,20.11
2023-04-23T12:46:58.275Z,19.83
2023-04-23T12:47:58.252Z,19.83
2023-04-23T12:48:58.206Z,19.83
2023-04-23T12:50:58.225Z,19.61
2023-04-23T12:51:58.180Z,20
2023-04-23T12:52:58.211Z,19.83
2023-04-23T12:54:58.182Z,19.83
2023-04-23T12:55:58.177Z,19.83
2023-04-23T12:56:58.176Z,19.83
2023-04-23T12:57:58.194Z,19.83
2023-04-23T12:58:58.194Z,20
2023-04-23T13:00:58.323Z,20.78
2023-04-23T13:01:58.202Z,20.39
2023-04-23T13:02:58.273Z,20.78
2023-04-23T13:03:58.289Z,20.78
2023-04-23T13:04:58.201Z,20.89
2023-04-23T13:05:58.200Z,21.22
2023-04-23T13:06:58.202Z,21.56
2023-04-23T13:08:58.232Z,21.22
2023-04-23T13:10:58.208Z,20.28
2023-04-23T13:11:58.207Z,20.56
2023-04-23T13:12:58.208Z,20.28
2023-04-23T13:13:58.196Z,20
2023-04-23T13:14:58.228Z,20.78
2023-04-23T13:16:58.207Z,20.78
2023-04-23T13:18:58.201Z,20.56
2023-04-23T13:19:58.196Z,20.28
2023-04-23T13:20:58.216Z,20.11
2023-04-23T13:21:58.210Z,19.83
2023-04-23T13:22:58.202Z,20
2023-04-23T13:23:58.221Z,20.28
2023-04-23T13:24:58.249Z,20.56
2023-04-23T13:26:58.208Z,20.28
2023-04-23T13:27:58.222Z,20.39
2023-04-23T13:28:58.217Z,21.22
2023-04-23T13:29:58.233Z,20.78
2023-04-23T13:30:58.229Z,20.28
2023-04-23T13:31:58.263Z,20.39
2023-04-23T13:32:58.240Z,20.39
2023-04-23T13:33:58.229Z,20.78
2023-04-23T13:34:58.214Z,20.28
2023-04-23T13:35:58.222Z,20.56
2023-04-23T13:36:58.238Z,20.28
2023-04-23T13:38:58.238Z,21.06
2023-04-23T13:39:58.219Z,21.22
2023-04-23T13:40:58.254Z,21.56
2023-04-23T13:42:58.233Z,22.39
2023-04-23T13:43:58.236Z,22.39
2023-04-23T13:44:58.225Z,21.72
2023-04-23T13:45:58.238Z,21.94
2023-04-23T13:46:58.248Z,22.22
2023-04-23T13:47:58.260Z,22.22
2023-04-23T13:48:58.225Z,21.72
2023-04-23T13:50:58.242Z,22.06
2023-04-23T13:51:58.229Z,22.22
2023-04-23T13:52:58.268Z,23.11
2023-04-23T13:54:58.240Z,22.61
2023-04-23T13:55:58.234Z,22.94
2023-04-23T13:56:58.283Z,23.11
2023-04-23T13:57:58.245Z,22.78
2023-04-23T13:59:12.015Z,22.78
2023-04-23T13:59:58.246Z,24
2023-04-23T14:01:58.242Z,23.11
2023-04-23T14:02:58.292Z,23.83
2023-04-23T14:03:58.260Z,24.17
2023-04-23T14:05:58.246Z,24.17
2023-04-23T14:07:58.256Z,23.28
2023-04-23T14:09:58.259Z,23.28
2023-04-23T14:10:58.245Z,23.11
2023-04-23T14:11:58.250Z,24.33
2023-04-23T14:12:58.272Z,23.83
2023-04-23T14:14:58.254Z,23.44
2023-04-23T14:15:58.812Z,23.28
2023-04-23T14:17:58.266Z,23.28
2023-04-23T14:18:58.265Z,23.28
2023-04-23T14:19:58.258Z,22.78
2023-04-23T14:20:58.250Z,22.78
2023-04-23T14:21:58.261Z,22.78
2023-04-23T14:23:58.262Z,23.28
2023-04-23T14:24:58.268Z,22.78
2023-04-23T14:26:58.257Z,23.67
2023-04-23T14:27:58.255Z,23.44
2023-04-23T14:28:58.281Z,24.17
2023-04-23T14:30:58.264Z,24.17
2023-04-23T14:31:58.253Z,24.33
2023-04-23T14:32:58.293Z,24.89
2023-04-23T14:33:58.249Z,23.28
2023-04-23T14:34:58.278Z,23.11
2023-04-23T14:35:58.269Z,23.28
2023-04-23T14:36:58.274Z,23.83
2023-04-23T14:37:58.268Z,24.89
2023-04-23T14:38:58.269Z,25.44
2023-04-23T14:40:58.260Z,25.06
2023-04-23T14:41:58.280Z,25.06
2023-04-23T14:43:04.912Z,25.44
2023-04-23T14:43:58.274Z,24.17
2023-04-23T14:44:58.291Z,24
2023-04-23T14:45:58.264Z,23.83
2023-04-23T14:46:58.269Z,24.17
2023-04-23T14:47:58.279Z,24.17
2023-04-23T14:48:58.260Z,24.17
2023-04-23T14:49:58.288Z,22.78
2023-04-23T14:51:58.403Z,21.94
2023-04-23T14:52:58.272Z,21.22
2023-04-23T14:53:58.277Z,21.22
2023-04-23T14:54:58.275Z,21.06
2023-04-23T14:55:58.296Z,21.56
2023-04-23T14:57:58.261Z,21.39
2023-04-23T14:58:58.274Z,21.39
2023-04-23T14:59:58.269Z,21.22
2023-04-23T15:00:58.293Z,21.22
2023-04-23T15:01:58.378Z,22.22
2023-04-23T15:02:58.441Z,23.67
2023-04-23T15:03:58.313Z,22.94
2023-04-23T15:05:58.276Z,22.94
2023-04-23T15:06:58.284Z,22.78
2023-04-23T15:07:58.280Z,22.78
2023-04-23T15:08:58.292Z,23.28
2023-04-23T15:10:58.289Z,23.11
2023-04-23T15:11:58.286Z,22.94
2023-04-23T15:12:58.278Z,23.28
2023-04-23T15:13:58.295Z,23.44
2023-04-23T15:14:58.284Z,24.33
2023-04-23T15:15:58.329Z,24.17
2023-04-23T15:16:58.358Z,24.17
2023-04-23T15:18:58.287Z,24.89
2023-04-23T15:19:58.276Z,24.5
2023-04-23T15:20:58.299Z,24.33
2023-04-23T15:21:58.304Z,24.89
2023-04-23T15:22:58.314Z,24.89
2023-04-23T15:24:58.292Z,25.22
2023-04-23T15:25:58.327Z,25.61
2023-04-23T15:27:58.288Z,24.89
2023-04-23T15:29:58.300Z,25.44
2023-04-23T15:30:58.307Z,25.44
2023-04-23T15:31:58.637Z,25.78
2023-04-23T15:32:58.370Z,25.61
2023-04-23T15:34:58.317Z,26.56
2023-04-23T15:35:59.894Z,26.33
2023-04-23T15:36:58.300Z,26.89
2023-04-23T15:37:58.303Z,26.56
2023-04-23T15:38:58.307Z,26.17
2023-04-23T15:39:58.299Z,22.61
2023-04-23T15:40:58.304Z,22.61
2023-04-23T15:41:58.308Z,22.22
2023-04-23T15:42:58.320Z,21.39
2023-04-23T15:44:58.326Z,20.89
2023-04-23T15:45:58.383Z,20.78
2023-04-23T15:47:58.369Z,20.89
2023-04-23T15:48:58.347Z,22.78
2023-04-23T15:50:58.312Z,22.78
2023-04-23T15:52:58.310Z,21.56
2023-04-23T15:53:58.311Z,21.72
2023-04-23T15:55:58.307Z,24.17
2023-04-23T15:56:58.317Z,24.5
2023-04-23T15:57:58.298Z,24.89
2023-04-23T15:58:58.341Z,24.67
2023-04-23T15:59:58.379Z,25.06
2023-04-23T16:01:58.352Z,25.22
2023-04-23T16:04:58.405Z,23.44
2023-04-23T16:06:58.318Z,23.28
2023-04-23T16:07:58.310Z,22.78
2023-04-23T16:08:58.303Z,21.94
2023-04-23T16:09:58.319Z,21.72
2023-04-23T16:11:58.315Z,21.94
2023-04-23T16:12:58.330Z,22.78
2023-04-23T16:14:58.323Z,23.44
2023-04-23T16:16:58.380Z,23.44
2023-04-23T16:18:58.315Z,23.28
2023-04-23T16:20:58.364Z,23.28
2023-04-23T16:21:58.312Z,23.28
2023-04-23T16:22:58.328Z,24.17
2023-04-23T16:24:58.331Z,22.94
2023-04-23T16:25:58.328Z,21.94
2023-04-23T16:26:58.329Z,21.72